Henefer, UT (84033)

11:09 PM MDT on August 20, 2014 (GMT -0600)
Morgan | Change Station
CLOSE
Current Station
Personal Weather Station
Location: Morgan, UT
Elevation: 5059 ft
Nearby Weather Stations

Elev 5059 ft 41.03 °N, 111.70 °W | Updated 7 seconds ago

Light Rain
Light Rain
57.0 °F
Feels Like 57.0 °F
N
0.0
Wind Variable Wind from NW
Gusts 3.0 mph

Today
High -- | Low -- °F
--% Chance of Precip.
Yesterday
High -- | Low -- °F
Precip. -- in
6:40 AM 8:17 PM
Waning Crescent, 16% visible
Pressure 29.95 in
Visibility 7.0 miles
Clouds Few 3500 ft
Scattered Clouds 4400 ft
Scattered Clouds 6000 ft
Dew Point 54 °F
Humidity 90%
Rainfall 0.33 in
Snow Depth 0 in , 0 in
UV 0 out of 12
Pollen 7.00 out of 12
Air Quality Not available.
Flu Activity Not available.
METAR KHIF 210458Z AUTO 10012KT 7SM R14/5500FT -RA FEW035 SCT044 SCT060 15/12 A3008 RMK AO2 LTG DSNT N RAB0403 TSB0406E0435 SLP140 P0021 T01490119

More Conditions Fewer Conditions

Pressure 29.95 in
Visibility 7.0 miles
Clouds Few 3500 ft
Scattered Clouds 4400 ft
Scattered Clouds 6000 ft
Dew Point 54 °F
Humidity 90%
Rainfall 0.33 in
Snow Depth 0 in , 0 in
UV 0 out of 12
Pollen 7.00 out of 12
Air Quality Not available.
Flu Activity Not available.
METAR KHIF 210458Z AUTO 10012KT 7SM R14/5500FT -RA FEW035 SCT044 SCT060 15/12 A3008 RMK AO2 LTG DSNT N RAB0403 TSB0406E0435 SLP140 P0021 T01490119

More Conditions Fewer Conditions

10-Day Weather Forecast

Almanac

Astronomy

Aug. 20, 2014 Rise Set
Actual Time 6:40 AM MDT 8:17 PM MDT
Civil Twilight 6:11 AM MDT 8:46 PM MDT
Nautical Twilight 5:36 AM MDT 9:21 PM MDT
Astronomical Twilight 4:58 AM MDT 9:58 PM MDT
Moon 2:22 AM MDT (8/20) 5:05 PM MDT (8/20)
Length of Visible Light 14h 34m
Length of Day
13h 36m
Tomorrow will be 2m 29s shorter.
Waning Crescent, 16% of the Moon is Illuminated
Aug 21
Waning Crescent
Aug 25
New
Sep 2
First Quarter
Sep 8
Full
Sep 15
Last Quarter

Yesterday's Extremes

State Highs State Lows

Community

WunderPhotos

Upload Photos

1,745,857 photos uploaded!

Nearby

Snow Depth

Station Depth Elevation
Hardscrabble 0 in 7250 ft
Louis Meadow 0 in 6700 ft
Horse Ridge 0 in 8160 ft
Chalk Creek #1 0 in 9100 ft
Brighton 0 in 8750 ft

Earthquake Activity

City Distance Mag. Time & Date
No recent earthquake activity has been reported nearby.
Minimum magnitude displayed is 2.5.

Coastal Water Temperatures

Place Temperature
No Stations Reporting

Nearby Weather Stations